Justell, Kentucky
Current Conditions -  °F | °C
As of 12:15 PM on Sunday 23 Nov 2014 (Local Time) from KPBX Reporting Station
Overcast Overcast  
Wind Chill: 59°   Ceiling: 7000
Heat Index: 59°   Visibility: 10mi
Dew Point: 43°   Wind: 8mph
Humidity: 56%   Direction: 140°SE
Pressure: 29.93"   Gusts: NA
Location:  37.5394°N, 82.6933°W
Report Text: KPBX 231715Z AUTO 14007KT 10SM SCT046 BKN070 OVC110 15/06 A2993 RMK AO2 T01480062
Loading
Personal Weather Stations






























Interactive Weather Map New forecast layout! Learn more

10-Day Weather Forecast

Advertisements
Track Severe Weather on mobile